GBFRV EGKK-LIMJ
Flight info
| Callsign | GBFRV |
|---|---|
| Flight time | 1h 17m |
| Altitude | 45000 |
| Route | BOGNA L612 BENBO UL612 OGULO DCT OKASI DCT OKEKO DCT MOU DCT MADIV DCT MOKIP DCT TUFTA DCT GEVEA/N0501F330 DCT MOBLO DCT LURAG DCT OBUXA DCT TOP/N0459F190 M730 TESTO |
| Aircraft | C750/M-SBDE3FGHRWXY/S |
Departure
| Time | 2026-04-15 11:26 |
|---|---|
| Airport | London Gatwick Airport (EGKK) |
Arrival
| Time | 2026-04-15 12:43 |
|---|---|
| Airport | Genoa Cristoforo Colombo Airport (LIMJ) |
| Time | Latitude | Longitude | Altitude | Speed | Heading |
|---|---|---|---|---|---|
| 2026-04-15 11:05 | 51.15332 | -0.18915 | 207 ft | 0 kts | 257° |
| 2026-04-15 11:18 | 51.15357 | -0.18885 | 203 ft | 4 kts | 220° |
| 2026-04-15 11:18 | 51.15358 | -0.18882 | 202 ft | 0 kts | 204° |
| 2026-04-15 11:18 | 51.15348 | -0.18873 | 203 ft | 4 kts | 131° |
| 2026-04-15 11:18 | 51.15346 | -0.18869 | 207 ft | 0 kts | 126° |
| 2026-04-15 11:19 | 51.15342 | -0.18858 | 200 ft | 4 kts | 118° |
| 2026-04-15 11:19 | 51.15337 | -0.18813 | 200 ft | 2 kts | 118° |
| 2026-04-15 11:19 | 51.15329 | -0.18792 | 205 ft | 0 kts | 126° |
| 2026-04-15 11:20 | 51.15320 | -0.18786 | 202 ft | 0 kts | 162° |
| 2026-04-15 11:21 | 51.15319 | -0.18785 | 202 ft | 0 kts | 162° |
| 2026-04-15 11:21 | 51.15259 | -0.18762 | 200 ft | 20 kts | 167° |
| 2026-04-15 11:21 | 51.15147 | -0.18650 | 200 ft | 19 kts | 106° |
| 2026-04-15 11:22 | 51.15176 | -0.18401 | 205 ft | 28 kts | 77° |
| 2026-04-15 11:22 | 51.15207 | -0.18138 | 202 ft | 23 kts | 76° |
| 2026-04-15 11:22 | 51.15243 | -0.17865 | 200 ft | 27 kts | 77° |
| 2026-04-15 11:22 | 51.15286 | -0.17552 | 200 ft | 30 kts | 77° |
| 2026-04-15 11:23 | 51.15302 | -0.17394 | 200 ft | 7 kts | 94° |
| 2026-04-15 11:23 | 51.15273 | -0.17342 | 200 ft | 6 kts | 155° |
| 2026-04-15 11:23 | 51.15235 | -0.17303 | 200 ft | 7 kts | 144° |
| 2026-04-15 11:23 | 51.15195 | -0.17258 | 200 ft | 7 kts | 146° |
| 2026-04-15 11:24 | 51.15177 | -0.17239 | 200 ft | 0 kts | 145° |
| 2026-04-15 11:24 | 51.15173 | -0.17234 | 200 ft | 3 kts | 144° |
| 2026-04-15 11:25 | 51.15093 | -0.17254 | 200 ft | 24 kts | 230° |
| 2026-04-15 11:25 | 51.15009 | -0.17618 | 207 ft | 57 kts | 258° |
| 2026-04-15 11:25 | 51.14851 | -0.18763 | 260 ft | 135 kts | 254° |
| 2026-04-15 11:25 | 51.14653 | -0.20334 | 795 ft | 152 kts | 254° |
| 2026-04-15 11:26 | 51.14430 | -0.22071 | 1394 ft | 167 kts | 252° |
| 2026-04-15 11:26 | 51.14171 | -0.23873 | 1894 ft | 171 kts | 252° |
| 2026-04-15 11:26 | 51.13896 | -0.25734 | 2381 ft | 174 kts | 251° |
| 2026-04-15 11:26 | 51.13631 | -0.27619 | 2863 ft | 173 kts | 252° |
| 2026-04-15 11:27 | 51.13372 | -0.29482 | 3348 ft | 171 kts | 251° |
| 2026-04-15 11:27 | 51.13114 | -0.31330 | 3818 ft | 171 kts | 251° |
| 2026-04-15 11:27 | 51.12847 | -0.33217 | 4000 ft | 184 kts | 251° |
| 2026-04-15 11:27 | 51.12560 | -0.35254 | 3996 ft | 186 kts | 251° |
| 2026-04-15 11:28 | 51.12292 | -0.37216 | 3987 ft | 177 kts | 251° |
| 2026-04-15 11:28 | 51.12011 | -0.39107 | 3961 ft | 176 kts | 248° |
| 2026-04-15 11:28 | 51.11349 | -0.40760 | 3904 ft | 182 kts | 223° |
| 2026-04-15 11:28 | 51.10252 | -0.41813 | 3891 ft | 190 kts | 200° |
| 2026-04-15 11:29 | 51.08910 | -0.41975 | 3960 ft | 197 kts | 180° |
| 2026-04-15 11:29 | 51.07544 | -0.41779 | 4129 ft | 193 kts | 180° |
| 2026-04-15 11:29 | 51.06175 | -0.41614 | 4700 ft | 208 kts | 180° |
| 2026-04-15 11:29 | 51.04624 | -0.41434 | 5081 ft | 244 kts | 179° |
| 2026-04-15 11:30 | 51.02801 | -0.41202 | 5472 ft | 272 kts | 178° |
| 2026-04-15 11:30 | 51.00886 | -0.40941 | 6328 ft | 277 kts | 178° |
| 2026-04-15 11:30 | 50.98961 | -0.40694 | 7099 ft | 287 kts | 178° |
| 2026-04-15 11:30 | 50.96936 | -0.40445 | 7804 ft | 291 kts | 178° |
| 2026-04-15 11:31 | 50.94930 | -0.40187 | 9092 ft | 288 kts | 178° |
| 2026-04-15 11:31 | 50.92949 | -0.39934 | 10363 ft | 282 kts | 179° |
| 2026-04-15 11:31 | 50.91019 | -0.39689 | 11566 ft | 274 kts | 179° |
| 2026-04-15 11:31 | 50.89146 | -0.39452 | 12811 ft | 265 kts | 179° |
| 2026-04-15 11:32 | 50.87337 | -0.39223 | 14065 ft | 256 kts | 179° |
| 2026-04-15 11:32 | 50.85598 | -0.39003 | 15237 ft | 245 kts | 180° |
| 2026-04-15 11:32 | 50.83955 | -0.38728 | 16404 ft | 238 kts | 174° |
| 2026-04-15 11:32 | 50.82417 | -0.37789 | 17605 ft | 237 kts | 159° |
| 2026-04-15 11:33 | 50.81048 | -0.36366 | 18833 ft | 225 kts | 156° |
| 2026-04-15 11:33 | 50.79777 | -0.35048 | 19889 ft | 216 kts | 157° |
| 2026-04-15 11:33 | 50.78464 | -0.33726 | 20332 ft | 235 kts | 157° |
| 2026-04-15 11:33 | 50.77048 | -0.32270 | 20893 ft | 250 kts | 156° |
| 2026-04-15 11:34 | 50.75562 | -0.30719 | 21478 ft | 263 kts | 155° |
| 2026-04-15 11:34 | 50.74000 | -0.29098 | 22081 ft | 275 kts | 155° |
| 2026-04-15 11:34 | 50.72369 | -0.27413 | 22698 ft | 286 kts | 155° |
| 2026-04-15 11:34 | 50.70669 | -0.25657 | 23326 ft | 297 kts | 155° |
| 2026-04-15 11:35 | 50.68914 | -0.23837 | 23904 ft | 307 kts | 154° |
| 2026-04-15 11:35 | 50.67113 | -0.21934 | 24427 ft | 317 kts | 154° |
| 2026-04-15 11:35 | 50.65890 | -0.20639 | 24777 ft | 322 kts | 154° |
| 2026-04-15 11:35 | 50.63998 | -0.18652 | 25302 ft | 331 kts | 154° |
| 2026-04-15 11:36 | 50.62058 | -0.16625 | 25839 ft | 339 kts | 154° |
| 2026-04-15 11:36 | 50.60074 | -0.14549 | 26409 ft | 346 kts | 154° |
| 2026-04-15 11:36 | 50.58050 | -0.12429 | 26968 ft | 353 kts | 154° |
| 2026-04-15 11:36 | 50.55308 | -0.09565 | 27729 ft | 362 kts | 154° |
| 2026-04-15 11:37 | 50.54138 | -0.08344 | 28049 ft | 365 kts | 154° |
| 2026-04-15 11:37 | 50.53991 | -0.08191 | 28096 ft | 365 kts | 154° |
| 2026-04-15 11:37 | 50.51874 | -0.05984 | 28686 ft | 371 kts | 154° |
| 2026-04-15 11:37 | 50.49699 | -0.03722 | 29094 ft | 382 kts | 154° |
| 2026-04-15 11:38 | 50.47422 | -0.01366 | 29093 ft | 402 kts | 154° |
| 2026-04-15 11:38 | 50.45005 | 0.01145 | 29084 ft | 420 kts | 153° |
| 2026-04-15 11:38 | 50.42559 | 0.03692 | 29104 ft | 436 kts | 153° |
| 2026-04-15 11:38 | 50.39985 | 0.06361 | 29097 ft | 451 kts | 153° |
| 2026-04-15 11:39 | 50.37323 | 0.09112 | 29103 ft | 465 kts | 153° |
| 2026-04-15 11:39 | 50.34585 | 0.11940 | 29105 ft | 476 kts | 153° |
| 2026-04-15 11:39 | 50.28942 | 0.17753 | 29104 ft | 494 kts | 152° |
| 2026-04-15 11:40 | 50.23128 | 0.23724 | 29109 ft | 505 kts | 152° |
| 2026-04-15 11:40 | 50.17236 | 0.29766 | 29093 ft | 507 kts | 152° |
| 2026-04-15 11:41 | 50.11375 | 0.35808 | 29107 ft | 502 kts | 152° |
| 2026-04-15 11:41 | 50.05567 | 0.41746 | 29107 ft | 497 kts | 152° |
| 2026-04-15 11:42 | 49.99789 | 0.47650 | 29068 ft | 498 kts | 152° |
| 2026-04-15 11:42 | 49.96894 | 0.50599 | 29410 ft | 491 kts | 152° |
| 2026-04-15 11:42 | 49.94125 | 0.53437 | 30752 ft | 463 kts | 153° |
| 2026-04-15 11:43 | 49.91488 | 0.56126 | 31751 ft | 449 kts | 153° |
| 2026-04-15 11:43 | 49.88848 | 0.58773 | 32105 ft | 454 kts | 153° |
| 2026-04-15 11:43 | 49.86195 | 0.61446 | 32586 ft | 457 kts | 153° |
| 2026-04-15 11:43 | 49.83636 | 0.64477 | 32970 ft | 466 kts | 147° |
| 2026-04-15 11:44 | 49.81140 | 0.67706 | 33455 ft | 469 kts | 147° |
| 2026-04-15 11:44 | 49.78623 | 0.70931 | 33903 ft | 471 kts | 147° |
| 2026-04-15 11:44 | 49.76089 | 0.74074 | 34314 ft | 474 kts | 148° |
| 2026-04-15 11:44 | 49.73507 | 0.77271 | 34655 ft | 478 kts | 148° |
| 2026-04-15 11:45 | 49.70922 | 0.80531 | 34998 ft | 482 kts | 147° |
| 2026-04-15 11:45 | 49.68310 | 0.83833 | 35366 ft | 485 kts | 147° |
| 2026-04-15 11:45 | 49.62965 | 0.90475 | 35437 ft | 504 kts | 147° |
| 2026-04-15 11:46 | 49.60225 | 0.93894 | 35740 ft | 508 kts | 147° |
| 2026-04-15 11:46 | 49.57472 | 0.97344 | 36050 ft | 512 kts | 147° |
| 2026-04-15 11:46 | 49.54696 | 1.00795 | 36362 ft | 514 kts | 147° |
| 2026-04-15 11:46 | 49.51911 | 1.04238 | 36658 ft | 514 kts | 147° |
| 2026-04-15 11:47 | 49.49121 | 1.07692 | 36971 ft | 514 kts | 147° |
| 2026-04-15 11:47 | 49.46333 | 1.11149 | 37153 ft | 517 kts | 147° |
| 2026-04-15 11:47 | 49.40671 | 1.18132 | 37151 ft | 526 kts | 147° |
| 2026-04-15 11:48 | 49.34971 | 1.25153 | 37159 ft | 531 kts | 147° |
| 2026-04-15 11:48 | 49.29187 | 1.32252 | 37147 ft | 533 kts | 147° |
| 2026-04-15 11:49 | 49.23394 | 1.39336 | 37154 ft | 534 kts | 146° |
| 2026-04-15 11:49 | 49.17576 | 1.46434 | 37165 ft | 535 kts | 146° |
| 2026-04-15 11:50 | 49.11740 | 1.53528 | 37170 ft | 537 kts | 146° |
| 2026-04-15 11:50 | 49.05886 | 1.60624 | 37173 ft | 538 kts | 146° |
| 2026-04-15 11:51 | 49.01902 | 1.65440 | 37179 ft | 538 kts | 146° |
| 2026-04-15 11:51 | 48.96017 | 1.72535 | 37176 ft | 540 kts | 146° |
| 2026-04-15 11:52 | 48.91954 | 1.77422 | 37167 ft | 540 kts | 146° |
| 2026-04-15 11:52 | 48.86047 | 1.84505 | 37173 ft | 541 kts | 146° |
| 2026-04-15 11:53 | 48.80122 | 1.91591 | 37180 ft | 543 kts | 146° |
| 2026-04-15 11:53 | 48.74215 | 1.98632 | 37180 ft | 544 kts | 146° |
| 2026-04-15 11:54 | 48.68255 | 2.05714 | 37178 ft | 545 kts | 146° |
| 2026-04-15 11:54 | 48.62275 | 2.12799 | 37169 ft | 546 kts | 146° |
| 2026-04-15 11:55 | 48.56339 | 2.19986 | 37161 ft | 550 kts | 142° |
| 2026-04-15 11:55 | 48.50937 | 2.28218 | 37187 ft | 553 kts | 138° |
| 2026-04-15 11:56 | 48.45499 | 2.36441 | 37197 ft | 553 kts | 139° |
| 2026-04-15 11:56 | 48.40054 | 2.44655 | 37188 ft | 555 kts | 138° |
| 2026-04-15 11:57 | 48.31885 | 2.56935 | 37196 ft | 556 kts | 139° |
| 2026-04-15 11:58 | 48.25889 | 2.64108 | 37194 ft | 549 kts | 153° |
| 2026-04-15 11:58 | 48.19087 | 2.69173 | 37185 ft | 546 kts | 158° |
| 2026-04-15 11:59 | 48.12356 | 2.74494 | 37207 ft | 549 kts | 154° |
| 2026-04-15 11:59 | 48.05579 | 2.79686 | 37186 ft | 545 kts | 161° |
| 2026-04-15 12:00 | 47.98536 | 2.83910 | 37208 ft | 547 kts | 161° |
| 2026-04-15 12:00 | 47.91564 | 2.88521 | 37203 ft | 548 kts | 160° |
| 2026-04-15 12:01 | 47.84554 | 2.92835 | 37205 ft | 549 kts | 161° |
| 2026-04-15 12:01 | 47.77531 | 2.97344 | 37197 ft | 551 kts | 160° |
| 2026-04-15 12:02 | 47.70453 | 3.01755 | 37203 ft | 552 kts | 160° |
| 2026-04-15 12:02 | 47.63371 | 3.06218 | 37203 ft | 554 kts | 160° |
| 2026-04-15 12:03 | 47.56260 | 3.10663 | 37201 ft | 555 kts | 160° |
| 2026-04-15 12:03 | 47.49133 | 3.15102 | 37207 ft | 556 kts | 160° |
| 2026-04-15 12:04 | 47.42280 | 3.20331 | 37200 ft | 563 kts | 148° |
| 2026-04-15 12:04 | 47.36470 | 3.28141 | 37198 ft | 570 kts | 132° |
| 2026-04-15 12:05 | 47.31909 | 3.37722 | 37206 ft | 573 kts | 123° |
| 2026-04-15 12:05 | 47.27586 | 3.47595 | 37209 ft | 573 kts | 127° |
| 2026-04-15 12:06 | 47.22679 | 3.56845 | 37203 ft | 573 kts | 129° |
| 2026-04-15 12:06 | 47.18067 | 3.66428 | 37202 ft | 574 kts | 126° |
| 2026-04-15 12:07 | 47.13323 | 3.75772 | 37206 ft | 574 kts | 129° |
| 2026-04-15 12:07 | 47.08605 | 3.85237 | 37203 ft | 575 kts | 126° |
| 2026-04-15 12:08 | 47.03864 | 3.94682 | 37212 ft | 575 kts | 128° |
| 2026-04-15 12:08 | 46.99087 | 4.04103 | 37214 ft | 576 kts | 127° |
| 2026-04-15 12:09 | 46.94335 | 4.13552 | 37204 ft | 576 kts | 127° |
| 2026-04-15 12:09 | 46.89530 | 4.22951 | 37208 ft | 577 kts | 127° |
| 2026-04-15 12:10 | 46.84754 | 4.32378 | 37200 ft | 577 kts | 127° |
| 2026-04-15 12:10 | 46.79933 | 4.41760 | 37202 ft | 578 kts | 127° |
| 2026-04-15 12:11 | 46.75126 | 4.51162 | 37214 ft | 578 kts | 127° |
| 2026-04-15 12:11 | 46.70296 | 4.60519 | 37209 ft | 578 kts | 127° |
| 2026-04-15 12:12 | 46.65499 | 4.69820 | 37208 ft | 578 kts | 127° |
| 2026-04-15 12:12 | 46.60654 | 4.79159 | 37201 ft | 578 kts | 127° |
| 2026-04-15 12:13 | 46.55807 | 4.88480 | 37199 ft | 578 kts | 126° |
| 2026-04-15 12:13 | 46.50952 | 4.97786 | 37206 ft | 577 kts | 127° |
| 2026-04-15 12:14 | 46.46221 | 5.07198 | 37179 ft | 576 kts | 121° |
| 2026-04-15 12:14 | 46.42999 | 5.17755 | 37180 ft | 572 kts | 105° |
| 2026-04-15 12:15 | 46.41168 | 5.28941 | 37203 ft | 570 kts | 99° |
| 2026-04-15 12:15 | 46.39331 | 5.40110 | 37196 ft | 571 kts | 104° |
| 2026-04-15 12:16 | 46.37052 | 5.51120 | 37190 ft | 570 kts | 102° |
| 2026-04-15 12:16 | 46.35154 | 5.62254 | 37195 ft | 570 kts | 103° |
| 2026-04-15 12:17 | 46.32948 | 5.73268 | 37197 ft | 569 kts | 103° |
| 2026-04-15 12:17 | 46.30947 | 5.84353 | 37198 ft | 568 kts | 102° |
| 2026-04-15 12:18 | 46.28792 | 5.95359 | 37197 ft | 569 kts | 103° |
| 2026-04-15 12:18 | 46.26620 | 6.06261 | 37191 ft | 570 kts | 107° |
| 2026-04-15 12:19 | 46.22892 | 6.16485 | 37189 ft | 576 kts | 123° |
| 2026-04-15 12:19 | 46.17480 | 6.24946 | 37193 ft | 580 kts | 137° |
| 2026-04-15 12:20 | 46.11217 | 6.32268 | 37203 ft | 580 kts | 140° |
| 2026-04-15 12:20 | 46.05193 | 6.39979 | 37189 ft | 578 kts | 133° |
| 2026-04-15 12:21 | 45.99460 | 6.48079 | 37179 ft | 579 kts | 135° |
| 2026-04-15 12:21 | 45.93408 | 6.55712 | 37162 ft | 578 kts | 135° |
| 2026-04-15 12:22 | 45.87592 | 6.63685 | 37139 ft | 578 kts | 134° |
| 2026-04-15 12:22 | 45.81594 | 6.71378 | 37157 ft | 579 kts | 135° |
| 2026-04-15 12:23 | 45.75696 | 6.79223 | 37148 ft | 579 kts | 134° |
| 2026-04-15 12:23 | 45.69675 | 6.86982 | 37157 ft | 585 kts | 135° |
| 2026-04-15 12:24 | 45.63691 | 6.94792 | 37139 ft | 587 kts | 134° |
| 2026-04-15 12:24 | 45.57592 | 7.02671 | 37157 ft | 588 kts | 135° |
| 2026-04-15 12:25 | 45.51920 | 7.10886 | 37156 ft | 581 kts | 124° |
| 2026-04-15 12:25 | 45.46859 | 7.19879 | 37158 ft | 583 kts | 126° |
| 2026-04-15 12:26 | 45.41629 | 7.28713 | 37169 ft | 582 kts | 125° |
| 2026-04-15 12:26 | 45.36526 | 7.37652 | 37165 ft | 582 kts | 126° |
| 2026-04-15 12:27 | 45.31312 | 7.46481 | 37169 ft | 583 kts | 126° |
| 2026-04-15 12:27 | 45.28717 | 7.50945 | 36651 ft | 589 kts | 125° |
| 2026-04-15 12:27 | 45.26138 | 7.55406 | 36017 ft | 579 kts | 125° |
| 2026-04-15 12:27 | 45.23609 | 7.59712 | 35404 ft | 569 kts | 126° |
| 2026-04-15 12:28 | 45.21898 | 7.62596 | 34989 ft | 564 kts | 126° |
| 2026-04-15 12:28 | 45.19399 | 7.66831 | 34388 ft | 556 kts | 125° |
| 2026-04-15 12:28 | 45.16159 | 7.72368 | 33552 ft | 545 kts | 124° |
| 2026-04-15 12:28 | 45.13750 | 7.76460 | 32890 ft | 538 kts | 125° |
| 2026-04-15 12:29 | 45.11358 | 7.80493 | 32250 ft | 531 kts | 125° |
| 2026-04-15 12:29 | 45.09005 | 7.84463 | 31614 ft | 524 kts | 125° |
| 2026-04-15 12:29 | 45.06686 | 7.88391 | 30996 ft | 517 kts | 125° |
| 2026-04-15 12:29 | 45.05130 | 7.91023 | 30586 ft | 512 kts | 125° |
| 2026-04-15 12:30 | 45.02851 | 7.94861 | 29941 ft | 506 kts | 125° |
| 2026-04-15 12:30 | 45.00625 | 7.98597 | 29254 ft | 500 kts | 125° |
| 2026-04-15 12:30 | 44.98407 | 8.02326 | 28578 ft | 493 kts | 125° |
| 2026-04-15 12:30 | 44.96218 | 8.06004 | 27941 ft | 486 kts | 125° |
| 2026-04-15 12:31 | 44.94054 | 8.09629 | 27294 ft | 479 kts | 125° |
| 2026-04-15 12:31 | 44.91923 | 8.13194 | 26658 ft | 471 kts | 126° |
| 2026-04-15 12:31 | 44.89826 | 8.16699 | 26045 ft | 464 kts | 126° |
| 2026-04-15 12:31 | 44.87759 | 8.20152 | 25440 ft | 457 kts | 126° |
| 2026-04-15 12:32 | 44.85721 | 8.23552 | 24847 ft | 451 kts | 126° |
| 2026-04-15 12:32 | 44.83709 | 8.26903 | 24266 ft | 445 kts | 126° |
| 2026-04-15 12:32 | 44.81724 | 8.30206 | 23686 ft | 438 kts | 126° |
| 2026-04-15 12:32 | 44.79765 | 8.33462 | 23006 ft | 433 kts | 127° |
| 2026-04-15 12:33 | 44.77832 | 8.36669 | 22335 ft | 427 kts | 127° |
| 2026-04-15 12:33 | 44.75925 | 8.39831 | 21698 ft | 421 kts | 127° |
| 2026-04-15 12:33 | 44.74044 | 8.42946 | 21059 ft | 415 kts | 128° |
| 2026-04-15 12:33 | 44.72188 | 8.46019 | 20433 ft | 409 kts | 128° |
| 2026-04-15 12:34 | 44.70356 | 8.49045 | 19819 ft | 404 kts | 128° |
| 2026-04-15 12:34 | 44.68543 | 8.52037 | 19212 ft | 399 kts | 128° |
| 2026-04-15 12:34 | 44.66753 | 8.54990 | 18612 ft | 394 kts | 128° |
| 2026-04-15 12:34 | 44.64982 | 8.57908 | 17967 ft | 390 kts | 128° |
| 2026-04-15 12:35 | 44.63041 | 8.60531 | 17245 ft | 388 kts | 139° |
| 2026-04-15 12:35 | 44.60887 | 8.62778 | 16598 ft | 384 kts | 143° |
| 2026-04-15 12:35 | 44.58740 | 8.64970 | 15966 ft | 380 kts | 141° |
| 2026-04-15 12:35 | 44.56669 | 8.67232 | 15348 ft | 375 kts | 140° |
| 2026-04-15 12:36 | 44.54793 | 8.69422 | 14092 ft | 317 kts | 134° |
| 2026-04-15 12:36 | 44.53418 | 8.71585 | 12292 ft | 276 kts | 127° |
| 2026-04-15 12:36 | 44.52148 | 8.73806 | 10497 ft | 304 kts | 127° |
| 2026-04-15 12:36 | 44.50811 | 8.76074 | 9002 ft | 305 kts | 127° |
| 2026-04-15 12:37 | 44.49487 | 8.78375 | 7863 ft | 292 kts | 125° |
| 2026-04-15 12:37 | 44.48267 | 8.80498 | 7048 ft | 275 kts | 127° |
| 2026-04-15 12:37 | 44.47061 | 8.82507 | 6213 ft | 265 kts | 132° |
| 2026-04-15 12:37 | 44.45496 | 8.83847 | 5361 ft | 273 kts | 157° |
| 2026-04-15 12:38 | 44.43595 | 8.84216 | 4195 ft | 266 kts | 179° |
| 2026-04-15 12:38 | 44.41880 | 8.83925 | 3481 ft | 229 kts | 189° |
| 2026-04-15 12:38 | 44.40361 | 8.83511 | 3359 ft | 217 kts | 191° |
| 2026-04-15 12:38 | 44.38924 | 8.83113 | 3237 ft | 206 kts | 185° |
| 2026-04-15 12:39 | 44.37584 | 8.83485 | 3077 ft | 189 kts | 143° |
| 2026-04-15 12:39 | 44.36770 | 8.84770 | 3008 ft | 171 kts | 109° |
| 2026-04-15 12:39 | 44.36284 | 8.86290 | 2883 ft | 173 kts | 105° |
| 2026-04-15 12:39 | 44.35816 | 8.87872 | 2726 ft | 177 kts | 106° |
| 2026-04-15 12:40 | 44.35382 | 8.89487 | 2578 ft | 179 kts | 103° |
| 2026-04-15 12:40 | 44.34946 | 8.91126 | 2459 ft | 179 kts | 102° |
| 2026-04-15 12:40 | 44.34877 | 8.92740 | 2339 ft | 162 kts | 68° |
| 2026-04-15 12:40 | 44.35524 | 8.93929 | 2228 ft | 153 kts | 29° |
| 2026-04-15 12:41 | 44.36551 | 8.94375 | 2043 ft | 156 kts | 11° |
| 2026-04-15 12:41 | 44.37637 | 8.94442 | 1798 ft | 160 kts | 352° |
| 2026-04-15 12:41 | 44.38670 | 8.93809 | 1505 ft | 168 kts | 329° |
| 2026-04-15 12:41 | 44.39459 | 8.92624 | 1110 ft | 164 kts | 303° |
| 2026-04-15 12:42 | 44.39822 | 8.91186 | 862 ft | 149 kts | 290° |
| 2026-04-15 12:42 | 44.40078 | 8.89873 | 702 ft | 134 kts | 294° |
| 2026-04-15 12:42 | 44.40324 | 8.88644 | 547 ft | 132 kts | 294° |
| 2026-04-15 12:42 | 44.40562 | 8.87390 | 323 ft | 133 kts | 292° |
| 2026-04-15 12:43 | 44.40809 | 8.86145 | 122 ft | 133 kts | 291° |
| 2026-04-15 12:43 | 44.41047 | 8.84935 | 18 ft | 120 kts | 293° |
| 2026-04-15 12:43 | 44.41226 | 8.84035 | 17 ft | 66 kts | 285° |
| 2026-04-15 12:43 | 44.41345 | 8.83753 | 16 ft | 20 kts | 332° |
| 2026-04-15 12:44 | 44.41413 | 8.83801 | 16 ft | 11 kts | 75° |
| 2026-04-15 12:44 | 44.41398 | 8.83931 | 18 ft | 16 kts | 104° |
| 2026-04-15 12:44 | 44.41369 | 8.84090 | 18 ft | 18 kts | 104° |
| 2026-04-15 12:44 | 44.41330 | 8.84260 | 16 ft | 19 kts | 111° |
| 2026-04-15 12:45 | 44.41274 | 8.84434 | 17 ft | 19 kts | 116° |
| 2026-04-15 12:45 | 44.41275 | 8.84542 | 18 ft | 8 kts | 45° |
| 2026-04-15 12:45 | 44.41320 | 8.84588 | 17 ft | 7 kts | 31° |
| 2026-04-15 12:45 | 44.41326 | 8.84593 | 17 ft | 0 kts | 30° |
| 2026-04-15 12:46 | 44.41341 | 8.84605 | 17 ft | 23 kts | 31° |
| 2026-04-15 12:47 | 44.41799 | 8.85185 | 108 ft | 127 kts | 40° |
| 2026-04-15 12:47 | 44.42346 | 8.86240 | 550 ft | 151 kts | 68° |
| 2026-04-15 12:47 | 44.42074 | 8.87853 | 813 ft | 194 kts | 109° |
| 2026-04-15 12:47 | 44.41399 | 8.89479 | 873 ft | 190 kts | 132° |
| 2026-04-15 12:48 | 44.40228 | 8.89894 | 910 ft | 174 kts | 200° |
| 2026-04-15 12:48 | 44.39560 | 8.88610 | 738 ft | 181 kts | 276° |
| 2026-04-15 12:48 | 44.40134 | 8.87329 | 495 ft | 143 kts | 320° |
| 2026-04-15 12:48 | 44.40709 | 8.86322 | 170 ft | 127 kts | 305° |
| 2026-04-15 12:49 | 44.40990 | 8.85215 | 15 ft | 109 kts | 293° |
| 2026-04-15 12:49 | 44.41162 | 8.84362 | 18 ft | 64 kts | 285° |
| 2026-04-15 12:49 | 44.41214 | 8.84200 | 18 ft | 5 kts | 39° |
| 2026-04-15 12:49 | 44.41272 | 8.84327 | 17 ft | 17 kts | 57° |